Yankton, SD

9:22 PM CDT on May 28, 2017 (GMT -0500)
Gurney Municipal

Weather History for KYKN - June, 2012

Change the Weather History Date:

Tuesday, June 19, 2012

  Actual Average Record
Temperature  
Mean Temperature 86 °F -  
Max Temperature 93 °F 81 °F 102 °F (1953)
Min Temperature 78 °F 57 °F 42 °F (1976)
Cooling Degree Days 20    
Growing Degree Days 36 (Base 50)    
Moisture  
Dew Point 65 °F    
Average Humidity 50    
Maximum Humidity 61    
Minimum Humidity 40    
Precipitation  
Precipitation 0.00 in - - ()
Sea Level Pressure  
Sea Level Pressure 29.54 in    
Wind  
Wind Speed 16 mph (South)    
Max Wind Speed 26 mph    
Max Gust Speed 38 mph    
Visibility 10 miles    
Events      
Averages and records for this station are not official NWS values.
T = Trace of Precipitation, MM = Missing Value Source: NWS Daily Summary

Daily Weather History Graph

Daily Weather History Graph

Search for Another Location

Airport or City:

Trip Planner

Search our weather history database for the weather conditions in past years. The results will help you decide how hot, cold, wet, or windy it might be!

Date:

Astronomy

Jun. 19, 2012 Rise Set
Actual Time 5:50 AM CDT 9:11 PM CDT
Civil Twilight 5:15 AM CDT 9:46 PM CDT
Nautical Twilight 4:29 AM CDT 10:32 PM CDT
Astronomical Twilight 3:32 AM CDT 11:29 PM CDT
Moon 5:57 AM CDT (6/19) 9:15 PM CDT (6/19)
Length of Visible Light 16h 31m
Length of Day
15h 21m
New Moon, 0% of the Moon is Illuminated
Jun 19
New Moon
Jun 26
First Quarter
Jul 3
Full
Jul 10
Last Quarter
Jul 18
New

Hourly Weather History & Observations

Time (CDT) Temp. Heat Index Dew Point Humidity Pressure Visibility Wind Dir Wind Speed Gust Speed Precip Events Conditions
12:15 AM 84.2 °F 86.6 °F 66.2 °F 55% 29.50 in 10.0 mi SSE 12.7 mph - N/A   Clear
12:35 AM 84.2 °F 86.6 °F 66.2 °F 55% 29.50 in 10.0 mi South 12.7 mph - N/A   Clear
12:55 AM 82.4 °F 84.6 °F 66.2 °F 58% 29.50 in 10.0 mi South 12.7 mph - N/A   Clear
1:15 AM 82.4 °F 84.6 °F 66.2 °F 58% 29.49 in 10.0 mi South 12.7 mph 18.4 mph N/A   Clear
1:35 AM 84.2 °F 85.6 °F 64.4 °F 51% 29.49 in 10.0 mi South 13.8 mph 20.7 mph N/A   Clear
1:55 AM 84.2 °F 85.6 °F 64.4 °F 51% 29.49 in 10.0 mi South 13.8 mph 19.6 mph N/A   Clear
2:15 AM 84.2 °F 85.6 °F 64.4 °F 51% 29.49 in 10.0 mi South 13.8 mph 18.4 mph N/A   Clear
2:35 AM 82.4 °F 83.9 °F 64.4 °F 54% 29.49 in 10.0 mi South 13.8 mph 20.7 mph N/A   Clear
2:55 AM 82.4 °F 83.9 °F 64.4 °F 54% 29.48 in 10.0 mi South 16.1 mph 27.6 mph N/A   Clear
3:15 AM 82.4 °F 83.9 °F 64.4 °F 54% 29.49 in 10.0 mi South 17.3 mph 23.0 mph N/A   Clear
3:35 AM 82.4 °F 83.9 °F 64.4 °F 54% 29.49 in 10.0 mi South 15.0 mph 24.2 mph N/A   Clear
4:15 AM 80.6 °F 82.3 °F 64.4 °F 58% 29.50 in 10.0 mi South 13.8 mph 26.5 mph N/A   Clear
4:35 AM 80.6 °F 82.3 °F 64.4 °F 58% 29.51 in 10.0 mi South 10.4 mph 18.4 mph N/A   Clear
4:55 AM 80.6 °F 82.3 °F 64.4 °F 58% 29.51 in 10.0 mi South 13.8 mph 20.7 mph N/A   Clear
5:15 AM 80.6 °F 82.3 °F 64.4 °F 58% 29.51 in 10.0 mi South 9.2 mph 16.1 mph N/A   Clear
5:35 AM 78.8 °F - 64.4 °F 61% 29.52 in 10.0 mi South 6.9 mph - N/A   Clear
5:55 AM 78.8 °F - 64.4 °F 61% 29.53 in 10.0 mi South 13.8 mph 19.6 mph N/A   Clear
6:15 AM 78.8 °F - 62.6 °F 57% 29.53 in 10.0 mi South 16.1 mph 20.7 mph N/A   Clear
6:35 AM 78.8 °F - 64.4 °F 61% 29.53 in 10.0 mi South 15.0 mph 24.2 mph N/A   Clear
6:55 AM 78.8 °F - 62.6 °F 57% 29.54 in 10.0 mi South 15.0 mph 20.7 mph N/A   Clear
7:15 AM 78.8 °F - 64.4 °F 61% 29.55 in 10.0 mi South 10.4 mph - N/A   Clear
7:35 AM 78.8 °F - 64.4 °F 61% 29.56 in 10.0 mi SSE 12.7 mph - N/A   Clear
7:55 AM 80.6 °F 82.3 °F 64.4 °F 58% 29.55 in 10.0 mi South 18.4 mph 23.0 mph N/A   Clear
8:15 AM 80.6 °F 82.3 °F 64.4 °F 58% 29.55 in 10.0 mi South 17.3 mph - N/A   Clear
8:35 AM 80.6 °F 82.3 °F 64.4 °F 58% 29.56 in 10.0 mi South 15.0 mph 21.9 mph N/A   Clear
8:55 AM 82.4 °F 83.9 °F 64.4 °F 54% 29.56 in 10.0 mi SSE 13.8 mph - N/A   Clear
9:15 AM 82.4 °F 84.6 °F 66.2 °F 58% 29.56 in 10.0 mi South 15.0 mph 20.7 mph N/A   Clear
9:35 AM 82.4 °F 84.6 °F 66.2 °F 58% 29.56 in 10.0 mi South 15.0 mph 21.9 mph N/A   Clear
9:55 AM 84.2 °F 85.6 °F 64.4 °F 51% 29.55 in 10.0 mi South 19.6 mph 23.0 mph N/A   Clear
10:15 AM 84.2 °F 86.6 °F 66.2 °F 55% 29.56 in 10.0 mi South 19.6 mph 27.6 mph N/A   Clear
10:35 AM 86.0 °F 88.2 °F 66.2 °F 51% 29.55 in 10.0 mi South 20.7 mph 26.5 mph N/A   Clear
10:55 AM 86.0 °F 88.2 °F 66.2 °F 51% 29.54 in 10.0 mi South 24.2 mph 29.9 mph N/A   Clear
11:15 AM 87.8 °F 90.4 °F 66.2 °F 49% 29.55 in 10.0 mi South 17.3 mph 31.1 mph N/A   Clear
11:35 AM 87.8 °F 90.4 °F 66.2 °F 49% 29.54 in 10.0 mi South 24.2 mph 27.6 mph N/A   Clear
11:55 AM 87.8 °F 90.4 °F 66.2 °F 49% 29.54 in 10.0 mi SSE 20.7 mph 25.3 mph N/A   Clear
12:15 PM 89.6 °F 92.2 °F 66.2 °F 46% 29.54 in 10.0 mi South 21.9 mph 33.4 mph N/A   Clear
12:35 PM 89.6 °F 92.2 °F 66.2 °F 46% 29.55 in 10.0 mi South 23.0 mph 33.4 mph N/A   Clear
12:55 PM 89.6 °F 92.2 °F 66.2 °F 46% 29.55 in 10.0 mi South 21.9 mph 31.1 mph N/A   Clear
1:15 PM 89.6 °F 92.2 °F 66.2 °F 46% 29.54 in 10.0 mi South 24.2 mph 32.2 mph N/A   Clear
1:35 PM 91.4 °F 94.0 °F 66.2 °F 43% 29.54 in 10.0 mi South 18.4 mph 28.8 mph N/A   Clear
2:15 PM 91.4 °F 94.0 °F 66.2 °F 43% 29.54 in 10.0 mi South 20.7 mph 29.9 mph N/A   Scattered Clouds
2:35 PM 93.2 °F 96.2 °F 66.2 °F 41% 29.54 in 10.0 mi South 21.9 mph 32.2 mph N/A   Partly Cloudy
2:55 PM 91.4 °F 94.0 °F 66.2 °F 43% 29.54 in 10.0 mi SSE 24.2 mph 35.7 mph N/A   Scattered Clouds
3:15 PM 91.4 °F 94.0 °F 66.2 °F 43% 29.54 in 10.0 mi South 24.2 mph 33.4 mph N/A   Mostly Cloudy
3:35 PM 93.2 °F 96.2 °F 66.2 °F 41% 29.54 in 10.0 mi South 23.0 mph 29.9 mph N/A   Partly Cloudy
3:55 PM 93.2 °F 96.2 °F 66.2 °F 41% 29.54 in 10.0 mi South 25.3 mph 38.0 mph N/A   Clear
4:15 PM 93.2 °F 96.2 °F 66.2 °F 41% 29.54 in 10.0 mi South 26.5 mph 33.4 mph N/A   Scattered Clouds
4:35 PM 93.2 °F 96.2 °F 66.2 °F 41% 29.54 in 10.0 mi South 26.5 mph 35.7 mph N/A   Partly Cloudy
4:55 PM 93.2 °F 96.2 °F 66.2 °F 41% 29.54 in 10.0 mi South 25.3 mph 34.5 mph N/A   Partly Cloudy
5:15 PM 93.2 °F 96.2 °F 66.2 °F 41% 29.55 in 10.0 mi South 19.6 mph 31.1 mph N/A   Clear
5:35 PM 93.2 °F 96.2 °F 66.2 °F 41% 29.55 in 10.0 mi South 23.0 mph 33.4 mph N/A   Clear
5:55 PM 91.4 °F 94.0 °F 66.2 °F 43% 29.55 in 10.0 mi South 21.9 mph 33.4 mph N/A   Clear
6:15 PM 91.4 °F 94.0 °F 66.2 °F 43% 29.55 in 10.0 mi South 25.3 mph 33.4 mph N/A   Partly Cloudy
6:35 PM 93.2 °F 96.2 °F 66.2 °F 41% 29.55 in 10.0 mi South 21.9 mph 35.7 mph N/A   Clear
6:55 PM 93.2 °F 96.2 °F 66.2 °F 41% 29.54 in 10.0 mi South 25.3 mph 32.2 mph N/A   Clear
7:15 PM 91.4 °F 94.0 °F 66.2 °F 43% 29.55 in 10.0 mi SSE 25.3 mph 31.1 mph N/A   Clear
7:35 PM 91.4 °F 94.0 °F 66.2 °F 43% 29.56 in 10.0 mi South 21.9 mph 34.5 mph N/A   Clear
7:55 PM 91.4 °F 94.0 °F 66.2 °F 43% 29.56 in 10.0 mi South 17.3 mph 31.1 mph N/A   Clear
8:15 PM 91.4 °F 94.0 °F 66.2 °F 43% 29.57 in 10.0 mi South 21.9 mph 28.8 mph N/A   Clear
8:35 PM 89.6 °F 91.1 °F 64.4 °F 43% 29.57 in 10.0 mi South 18.4 mph 28.8 mph N/A   Clear
8:55 PM 89.6 °F 91.1 °F 64.4 °F 43% 29.57 in 10.0 mi South 20.7 mph 28.8 mph N/A   Clear
9:15 PM 89.6 °F 91.1 °F 64.4 °F 43% 29.56 in 10.0 mi SSE 16.1 mph 26.5 mph N/A   Clear
9:35 PM 89.6 °F 90.1 °F 62.6 °F 40% 29.57 in 10.0 mi South 19.6 mph 29.9 mph N/A   Clear
9:55 PM 87.8 °F 89.4 °F 64.4 °F 46% 29.59 in 10.0 mi South 19.6 mph 25.3 mph N/A   Clear
10:15 PM 86.0 °F 88.2 °F 66.2 °F 51% 29.60 in 10.0 mi South 19.6 mph 24.2 mph N/A   Clear
10:35 PM 84.2 °F 86.6 °F 66.2 °F 55% 29.61 in 10.0 mi SSE 20.7 mph 26.5 mph N/A   Clear
10:55 PM 84.2 °F 86.6 °F 66.2 °F 55% 29.62 in 10.0 mi South 17.3 mph 26.5 mph N/A   Clear
11:15 PM 84.2 °F 86.6 °F 66.2 °F 55% 29.65 in 10.0 mi WSW 8.1 mph - N/A   Clear
11:35 PM 84.2 °F 86.6 °F 66.2 °F 55% 29.65 in 10.0 mi SSW 12.7 mph 18.4 mph N/A   Partly Cloudy
11:55 PM 84.2 °F 85.6 °F 64.4 °F 51% 29.64 in 10.0 mi South 12.7 mph 18.4 mph N/A   Partly Cloudy